Time;durP1;ratioP1;P1;durP2;ratioP2;P2;SDS_P1;SDS_P2;PMS_P1;PMS_P2;Temp;Humidity;BMP_temperature;BMP_pressure;BME280_temperature;BME280_humidity;BME280_pressure;Samples;Min_cycle;Max_cycle;Signal;HPM_P1;HPM_P2
2021/12/09 00:00:48;;;;;;;9.23;8.10;;;;;;;3.59;89.60;94082.25;4980151;28;20255;-84
2021/12/09 00:03:14;;;;;;;10.10;7.87;;;;;;;3.55;90.30;94087.84;4980398;28;20239;-84
2021/12/09 00:05:43;;;;;;;8.87;7.97;;;;;;;3.55;89.77;94095.47;4972092;28;20224;-84
2021/12/09 00:08:12;;;;;;;9.23;7.97;;;;;;;3.53;90.14;94117.75;4975718;28;20283;-84
2021/12/09 00:10:38;;;;;;;8.47;7.57;;;;;;;3.52;90.47;94109.31;4974160;28;20666;-84
2021/12/09 00:13:06;;;;;;;8.63;7.73;;;;;;;3.50;90.51;94123.97;4973803;28;20200;-83
2021/12/09 00:15:33;;;;;;;8.43;7.37;;;;;;;3.52;90.27;94116.97;4980660;28;20224;-84
2021/12/09 00:18:01;;;;;;;9.93;8.27;;;;;;;3.58;90.31;94110.41;4979855;28;20204;-84
2021/12/09 00:20:28;;;;;;;8.97;7.57;;;;;;;3.52;90.71;94106.78;4980097;28;20231;-84
2021/12/09 00:22:54;;;;;;;10.30;7.57;;;;;;;3.48;90.92;94108.88;4978888;28;20227;-84
2021/12/09 00:25:22;;;;;;;8.27;7.13;;;;;;;3.53;90.72;94103.28;4980251;28;20228;-84
2021/12/09 00:27:51;;;;;;;7.80;7.00;;;;;;;3.57;90.43;94094.34;4980202;28;20291;-84
2021/12/09 00:30:19;;;;;;;9.37;7.87;;;;;;;3.54;90.93;94088.81;4978907;28;20728;-84
2021/12/09 00:32:46;;;;;;;8.43;7.33;;;;;;;3.59;90.24;94094.97;4979646;28;20664;-84
2021/12/09 00:35:15;;;;;;;9.03;7.50;;;;;;;3.62;89.97;94104.81;4979677;28;20945;-84
2021/12/09 00:37:53;;;;;;;8.43;7.40;;;;;;;3.64;90.30;94102.09;4979997;28;20283;-84
2021/12/09 00:40:19;;;;;;;9.57;8.23;;;;;;;3.62;90.04;94097.19;4979203;28;20278;-84
2021/12/09 00:42:47;;;;;;;8.97;8.07;;;;;;;3.63;90.39;94105.59;4979660;28;20624;-84
2021/12/09 00:45:14;;;;;;;8.20;7.40;;;;;;;3.62;90.29;94121.84;4979621;28;20227;-84
2021/12/09 00:47:41;;;;;;;9.83;8.13;;;;;;;3.66;90.20;94112.88;4970307;28;20200;-83
2021/12/09 00:50:08;;;;;;;8.60;7.63;;;;;;;3.62;89.80;94112.44;4979075;28;20367;-84
2021/12/09 00:52:35;;;;;;;7.67;6.87;;;;;;;3.61;90.38;94120.25;4979287;28;20200;-84
2021/12/09 00:55:02;;;;;;;8.73;7.37;;;;;;;3.61;90.44;94120.25;4980139;28;20228;-83
2021/12/09 00:57:29;;;;;;;7.70;6.90;;;;;;;3.60;90.65;94118.66;4978589;28;20196;-84
2021/12/09 00:59:58;;;;;;;8.90;6.83;;;;;;;3.58;90.62;94121.38;4979128;28;20232;-84
2021/12/09 01:02:24;;;;;;;7.83;6.97;;;;;;;3.55;91.28;94113.28;4979328;28;20193;-84
2021/12/09 01:04:51;;;;;;;7.00;6.30;;;;;;;3.50;91.25;94113.78;4977024;28;20227;-84
2021/12/09 01:07:17;;;;;;;7.50;6.70;;;;;;;3.45;92.02;94119.41;4974971;28;20215;-83
2021/12/09 01:09:44;;;;;;;6.77;6.17;;;;;;;3.42;92.06;94113.84;4978927;28;20231;-83
2021/12/09 01:12:11;;;;;;;6.10;5.50;;;;;;;3.42;92.18;94121.50;4975222;28;20228;-83
2021/12/09 01:14:38;;;;;;;6.33;5.43;;;;;;;3.45;91.95;94134.66;4979130;28;20324;-83
2021/12/09 01:17:08;;;;;;;5.80;5.13;;;;;;;3.46;91.92;94138.00;4979132;28;20204;-83
2021/12/09 01:19:35;;;;;;;5.77;5.20;;;;;;;3.44;91.85;94140.72;4978920;28;20247;-83
2021/12/09 01:22:02;;;;;;;5.87;4.90;;;;;;;3.41;92.38;94135.16;4977902;28;20255;-83
2021/12/09 01:24:28;;;;;;;6.20;5.00;;;;;;;3.40;92.39;94124.19;4977997;28;20735;-83
2021/12/09 01:26:56;;;;;;;5.77;5.17;;;;;;;3.43;92.50;94120.53;4978731;28;20745;-83
2021/12/09 01:29:32;;;;;;;5.70;4.83;;;;;;;3.47;91.88;94103.94;4977985;28;20735;-83
2021/12/09 01:32:02;;;;;;;6.80;5.07;;;;;;;3.42;92.36;94098.59;4978006;28;20600;-83
2021/12/09 01:34:30;;;;;;;5.80;5.23;;;;;;;3.41;92.42;94099.56;4978258;28;20224;-83
2021/12/09 01:36:57;;;;;;;5.30;4.80;;;;;;;3.46;92.06;94110.78;4977256;28;20208;-84
2021/12/09 01:39:26;;;;;;;4.87;4.37;;;;;;;3.48;91.85;94120.78;4978028;28;20242;-83
2021/12/09 01:41:53;;;;;;;4.37;3.97;;;;;;;3.56;91.45;94122.50;4978056;28;20212;-83
2021/12/09 01:44:19;;;;;;;4.50;4.10;;;;;;;3.56;91.18;94125.06;4979253;28;20221;-83
2021/12/09 01:46:46;;;;;;;4.87;4.43;;;;;;;3.54;91.36;94134.59;4981946;28;20219;-84
2021/12/09 01:49:13;;;;;;;4.40;4.00;;;;;;;3.52;91.67;94141.59;4978508;28;20243;-83
2021/12/09 01:51:41;;;;;;;4.70;4.30;;;;;;;3.57;91.20;94149.53;4978617;28;20220;-83
2021/12/09 01:54:08;;;;;;;4.83;4.40;;;;;;;3.51;91.69;94161.16;4978130;28;20684;-83
2021/12/09 01:56:35;;;;;;;4.37;3.97;;;;;;;3.58;90.98;94157.00;4978577;28;20276;-82
2021/12/09 01:59:05;;;;;;;4.20;3.87;;;;;;;3.59;90.42;94158.59;4977789;28;20199;-83
2021/12/09 02:01:33;;;;;;;4.30;3.93;;;;;;;3.61;90.58;94161.75;4979241;28;20196;-83
2021/12/09 02:04:00;;;;;;;4.23;3.83;;;;;;;3.59;90.52;94162.88;4977500;28;20204;-83
2021/12/09 02:06:27;;;;;;;4.60;4.20;;;;;;;3.60;90.06;94160.16;4964000;28;20205;-83
2021/12/09 02:08:56;;;;;;;3.83;3.53;;;;;;;3.62;90.12;94163.34;4977831;28;20196;-83
2021/12/09 02:11:24;;;;;;;3.80;3.50;;;;;;;3.62;90.18;94160.78;4977833;28;20220;-83
2021/12/09 02:13:54;;;;;;;3.97;3.67;;;;;;;3.64;90.39;94160.63;4977715;28;20571;-82
2021/12/09 02:16:21;;;;;;;4.00;3.60;;;;;;;3.59;90.24;94163.66;4978485;28;20208;-82
2021/12/09 02:18:49;;;;;;;3.93;3.63;;;;;;;3.61;90.53;94174.47;4977889;28;20290;-82
2021/12/09 02:21:19;;;;;;;4.10;3.73;;;;;;;3.60;90.24;94170.34;4977184;28;20227;-83
2021/12/09 02:23:51;;;;;;;4.10;3.80;;;;;;;3.63;90.42;94171.78;4978659;28;20583;-83
2021/12/09 02:26:22;;;;;;;3.87;3.57;;;;;;;3.61;90.50;94174.47;4977632;28;20847;-83
2021/12/09 02:28:53;;;;;;;4.30;3.90;;;;;;;3.61;90.44;94171.13;4978102;28;20200;-83
2021/12/09 02:31:19;;;;;;;3.80;3.50;;;;;;;3.61;90.63;94171.13;4977906;28;20227;-83
2021/12/09 02:33:46;;;;;;;4.33;3.93;;;;;;;3.65;90.16;94174.94;4978277;28;20274;-83
2021/12/09 02:36:12;;;;;;;4.70;4.30;;;;;;;3.63;90.11;94174.31;4977946;28;20227;-83
2021/12/09 02:38:44;;;;;;;4.73;4.33;;;;;;;3.66;89.98;94171.41;4978358;28;20533;-83
2021/12/09 02:41:15;;;;;;;4.77;4.37;;;;;;;3.63;90.02;94170.00;4978337;28;20251;-83
2021/12/09 02:43:43;;;;;;;4.70;4.30;;;;;;;3.64;89.81;94165.72;4978489;28;20264;-83
2021/12/09 02:46:09;;;;;;;4.27;3.87;;;;;;;3.63;89.80;94159.03;4978439;28;20220;-83
2021/12/09 02:48:36;;;;;;;4.80;4.40;;;;;;;3.63;90.09;94149.66;4983006;28;20206;-83
2021/12/09 02:51:05;;;;;;;4.90;4.50;;;;;;;3.63;90.02;94149.66;4981736;28;20231;-82
2021/12/09 02:53:32;;;;;;;4.70;4.30;;;;;;;3.63;89.96;94143.78;4982882;28;20207;-83
2021/12/09 02:56:00;;;;;;;5.47;4.97;;;;;;;3.57;90.23;94150.31;4983034;28;20745;-82
2021/12/09 02:58:26;;;;;;;5.10;4.70;;;;;;;3.51;90.70;94148.44;4983030;28;20204;-82
2021/12/09 03:00:57;;;;;;;5.73;5.10;;;;;;;3.45;91.27;94162.66;4982418;28;20220;-83
2021/12/09 03:03:24;;;;;;;5.53;5.03;;;;;;;3.51;90.93;94171.34;4983349;28;20668;-83
2021/12/09 03:05:54;;;;;;;5.43;4.93;;;;;;;3.55;90.60;94180.22;4980579;28;20220;-82
2021/12/09 03:08:32;;;;;;;5.80;5.30;;;;;;;3.55;90.53;94195.50;4965800;28;20248;-82
2021/12/09 03:11:00;;;;;;;5.60;5.10;;;;;;;3.54;90.20;94181.19;4980060;28;20223;-83
2021/12/09 03:13:27;;;;;;;5.23;4.73;;;;;;;3.47;91.06;94186.16;4981048;28;20204;-82
2021/12/09 03:15:53;;;;;;;4.87;4.47;;;;;;;3.50;90.94;94197.75;4980888;28;20224;-82
2021/12/09 03:18:20;;;;;;;5.97;5.47;;;;;;;3.52;90.61;94195.81;4980984;28;20208;-82
2021/12/09 03:20:46;;;;;;;5.53;5.03;;;;;;;3.50;90.73;94192.66;4980334;28;20235;-82
2021/12/09 03:23:13;;;;;;;5.60;5.10;;;;;;;3.53;90.73;94191.53;4980626;28;20223;-83
2021/12/09 03:25:39;;;;;;;5.83;5.23;;;;;;;3.52;90.64;94195.81;4981778;28;20228;-82
2021/12/09 03:28:07;;;;;;;5.67;5.17;;;;;;;3.56;90.92;94198.84;4981489;28;20211;-82
2021/12/09 03:30:34;;;;;;;5.70;5.20;;;;;;;3.50;90.80;94200.28;4981193;28;20261;-84
2021/12/09 03:33:01;;;;;;;5.70;5.20;;;;;;;3.54;90.53;94208.38;4981754;28;20224;-83
2021/12/09 03:35:27;;;;;;;5.90;5.40;;;;;;;3.50;90.46;94214.75;4981154;28;20220;-86
2021/12/09 03:37:54;;;;;;;6.40;5.80;;;;;;;3.55;90.37;94204.88;4981815;28;20197;-86
2021/12/09 03:40:20;;;;;;;6.30;5.70;;;;;;;3.54;90.68;94221.91;4981296;28;20235;-86
2021/12/09 03:42:47;;;;;;;5.73;5.23;;;;;;;3.54;90.54;94216.81;4982120;28;20201;-85
2021/12/09 03:45:15;;;;;;;6.70;6.10;;;;;;;3.54;90.97;94218.56;4980719;28;20868;-85
2021/12/09 03:47:43;;;;;;;6.67;6.07;;;;;;;3.54;90.81;94210.94;4982281;28;20231;-85
2021/12/09 03:50:13;;;;;;;5.90;5.40;;;;;;;3.55;90.46;94204.88;4981096;28;20231;-86
2021/12/09 03:52:39;;;;;;;6.50;5.90;;;;;;;3.59;90.41;94203.59;4981445;28;20236;-86
2021/12/09 03:55:07;;;;;;;6.23;5.63;;;;;;;3.57;90.47;94211.38;4980847;28;20220;-85
2021/12/09 03:57:34;;;;;;;6.40;5.80;;;;;;;3.58;90.73;94214.72;4981278;28;20499;-85
2021/12/09 04:00:01;;;;;;;6.80;6.10;;;;;;;3.60;90.26;94211.06;4980175;28;20239;-85
2021/12/09 04:02:29;;;;;;;6.30;5.70;;;;;;;3.60;90.08;94223.00;4981669;28;20289;-85
2021/12/09 04:04:55;;;;;;;6.37;5.77;;;;;;;3.55;90.75;94223.47;4980261;28;20231;-85
2021/12/09 04:07:22;;;;;;;6.63;6.03;;;;;;;3.52;90.80;94226.34;4973022;28;20192;-85
2021/12/09 04:09:48;;;;;;;7.30;6.60;;;;;;;3.54;90.62;94226.97;4980540;28;20236;-86
2021/12/09 04:12:15;;;;;;;6.93;6.23;;;;;;;3.50;91.20;94219.84;4981775;28;20212;-85
2021/12/09 04:14:42;;;;;;;6.63;5.93;;;;;;;3.51;90.92;94214.59;4981369;28;20231;-85
2021/12/09 04:17:08;;;;;;;7.23;6.53;;;;;;;3.51;91.29;94214.59;4981724;28;20199;-86
2021/12/09 04:19:36;;;;;;;7.53;6.47;;;;;;;3.55;90.81;94222.69;4980993;28;20259;-85
2021/12/09 04:22:03;;;;;;;6.90;6.13;;;;;;;3.57;90.87;94236.84;4981181;28;20228;-86
2021/12/09 04:24:29;;;;;;;7.80;6.80;;;;;;;3.59;90.40;94236.66;4980440;28;20232;-85
2021/12/09 04:26:56;;;;;;;6.93;6.30;;;;;;;3.61;90.42;94227.13;4982010;28;20211;-86
2021/12/09 04:29:23;;;;;;;6.70;6.07;;;;;;;3.60;90.53;94231.41;4980691;28;20236;-86
2021/12/09 04:31:51;;;;;;;6.40;5.80;;;;;;;3.59;90.38;94224.75;4981412;28;20703;-85
2021/12/09 04:34:18;;;;;;;6.60;6.00;;;;;;;3.59;90.49;94223.94;4981230;28;20228;-85
2021/12/09 04:36:46;;;;;;;6.93;6.23;;;;;;;3.57;90.78;94213.13;4981484;28;20235;-86
2021/12/09 04:39:12;;;;;;;7.13;6.33;;;;;;;3.56;90.90;94214.91;4980273;28;20231;-85
2021/12/09 04:41:39;;;;;;;6.57;5.97;;;;;;;3.60;90.57;94218.69;4980609;28;20200;-85
2021/12/09 04:44:07;;;;;;;7.23;6.53;;;;;;;3.60;90.21;94226.31;4980735;28;20200;-86
2021/12/09 04:46:34;;;;;;;6.80;6.10;;;;;;;3.59;90.23;94236.66;4980625;28;20215;-85
2021/12/09 04:49:01;;;;;;;6.80;6.10;;;;;;;3.52;91.30;94239.06;4980226;28;20235;-85
2021/12/09 04:51:28;;;;;;;7.20;6.50;;;;;;;3.56;90.92;94245.44;4980743;28;20679;-85
2021/12/09 04:53:56;;;;;;;6.70;6.00;;;;;;;3.53;90.97;94240.66;4980248;28;20204;-85
2021/12/09 04:56:23;;;;;;;7.47;6.57;;;;;;;3.46;91.70;94237.97;4980363;28;20207;-85
2021/12/09 04:58:51;;;;;;;7.10;6.40;;;;;;;3.51;91.00;94242.56;4979853;28;20208;-85
2021/12/09 05:01:18;;;;;;;7.07;6.37;;;;;;;3.49;91.68;94252.13;4979029;28;20244;-85
2021/12/09 05:03:47;;;;;;;6.63;6.00;;;;;;;3.51;91.77;94255.31;4977684;28;20259;-84
2021/12/09 05:06:14;;;;;;;7.07;6.37;;;;;;;3.56;91.31;94260.69;4971231;28;20224;-84
2021/12/09 05:08:45;;;;;;;7.37;6.67;;;;;;;3.55;90.76;94255.78;4959383;28;20760;-85
2021/12/09 05:11:27;;;;;;;6.97;6.30;;;;;;;3.57;91.29;94262.28;4976198;28;20228;-85
2021/12/09 05:13:53;;;;;;;7.37;6.67;;;;;;;3.55;90.99;94263.41;4977212;28;20291;-85
2021/12/09 05:16:20;;;;;;;7.03;6.33;;;;;;;3.57;91.09;94264.03;4977354;28;20233;-84
2021/12/09 05:18:48;;;;;;;7.10;6.37;;;;;;;3.55;91.20;94268.50;4979048;28;20208;-85
2021/12/09 05:21:17;;;;;;;6.40;5.80;;;;;;;3.56;91.18;94275.16;4976932;28;20277;-84
2021/12/09 05:23:43;;;;;;;7.53;6.47;;;;;;;3.52;91.57;94277.25;4978433;28;20212;-84
2021/12/09 05:26:10;;;;;;;7.67;5.77;;;;;;;3.50;91.91;94276.63;4977509;28;20220;-85
2021/12/09 05:28:38;;;;;;;6.43;5.67;;;;;;;3.54;91.32;94284.72;4978606;28;20200;-84
2021/12/09 05:33:50;;;;;;;6.60;5.63;;;;;;;3.51;91.69;94296.00;4977384;28;20238;-85
2021/12/09 05:36:17;;;;;;;6.30;5.70;;;;;;;3.44;92.02;94300.19;4977004;28;20288;-84
2021/12/09 05:38:44;;;;;;;6.00;5.40;;;;;;;3.41;93.06;94314.03;4976095;28;20231;-85
2021/12/09 05:41:10;;;;;;;6.20;5.60;;;;;;;3.44;92.72;94328.16;4972521;28;20242;-86
2021/12/09 05:43:40;;;;;;;7.20;5.70;;;;;;;3.47;92.46;94327.81;4966052;28;20211;-85
2021/12/09 05:46:07;;;;;;;7.20;5.40;;;;;;;3.45;93.73;94334.84;4976205;28;20228;-84
2021/12/09 05:48:36;;;;;;;6.00;5.40;;;;;;;3.49;92.57;94336.09;4974939;28;20208;-84
2021/12/09 05:51:03;;;;;;;6.30;5.70;;;;;;;3.44;93.59;94336.59;4975760;28;20238;-85
2021/12/09 05:53:30;;;;;;;7.50;5.67;;;;;;;3.51;92.13;94343.56;4975882;28;20228;-85
2021/12/09 05:55:56;;;;;;;5.93;4.83;;;;;;;3.50;92.25;94341.97;4975375;28;20220;-84
2021/12/09 05:58:23;;;;;;;7.20;5.23;;;;;;;3.50;93.83;94347.06;4975144;28;20233;-84
2021/12/09 06:00:54;;;;;;;6.40;5.03;;;;;;;3.52;99.30;94351.03;4972742;28;20327;-84
2021/12/09 06:03:21;;;;;;;5.27;4.77;;;;;;;3.55;94.90;94350.72;4973382;28;20193;-84
2021/12/09 06:05:49;;;;;;;14.23;11.17;;;;;;;3.54;92.71;94346.56;4963845;28;20216;-85
2021/12/09 06:08:16;;;;;;;10.10;7.47;;;;;;;3.55;92.06;94355.78;4971112;28;20207;-84
2021/12/09 06:10:43;;;;;;;6.03;5.17;;;;;;;3.58;92.18;94359.75;4968942;28;20235;-84
2021/12/09 06:13:10;;;;;;;6.17;4.63;;;;;;;3.60;91.48;94360.41;4973980;28;20232;-85
2021/12/09 06:15:36;;;;;;;5.37;4.50;;;;;;;3.61;91.55;94355.16;4974985;28;20247;-84
2021/12/09 06:18:05;;;;;;;5.07;4.57;;;;;;;3.61;91.40;94351.81;4974730;28;20214;-84
2021/12/09 06:20:32;;;;;;;4.90;4.40;;;;;;;3.58;91.38;94347.03;4974934;28;20235;-85
2021/12/09 06:22:58;;;;;;;5.47;4.30;;;;;;;3.59;91.50;94354.50;4973486;28;20208;-84
2021/12/09 06:25:25;;;;;;;4.90;4.40;;;;;;;3.61;91.14;94359.44;4974117;28;20224;-84
2021/12/09 06:27:54;;;;;;;5.20;4.20;;;;;;;3.61;91.29;94360.22;4974217;28;20634;-84
2021/12/09 06:30:21;;;;;;;4.30;3.90;;;;;;;3.58;91.44;94360.56;4986322;28;20271;-84
2021/12/09 06:32:48;;;;;;;6.20;4.20;;;;;;;3.58;91.68;94360.56;4975935;28;20227;-84
2021/12/09 06:35:18;;;;;;;4.63;3.80;;;;;;;3.57;91.56;94369.16;4975275;28;20228;-85
2021/12/09 06:37:47;;;;;;;4.10;3.70;;;;;;;3.56;91.66;94359.94;4975823;28;20652;-84
2021/12/09 06:40:16;;;;;;;4.17;3.47;;;;;;;3.55;91.44;94362.63;4974765;28;20715;-84
2021/12/09 06:42:43;;;;;;;4.00;3.57;;;;;;;3.54;91.65;94361.84;4974518;28;20208;-84
2021/12/09 06:45:11;;;;;;;3.83;3.23;;;;;;;3.46;92.21;94360.09;4973929;28;20603;-84
2021/12/09 06:47:38;;;;;;;3.77;3.40;;;;;;;3.50;92.14;94357.22;4975128;28;20215;-85
2021/12/09 06:50:07;;;;;;;3.47;3.17;;;;;;;3.52;92.09;94357.88;4974493;28;20232;-84
2021/12/09 06:52:35;;;;;;;3.30;3.00;;;;;;;3.48;92.35;94353.09;4974503;28;20235;-85
2021/12/09 06:55:02;;;;;;;3.63;3.17;;;;;;;3.40;92.97;94358.22;4974821;28;20251;-85
2021/12/09 06:57:29;;;;;;;3.17;2.83;;;;;;;3.40;92.94;94360.78;4975096;28;20696;-85
2021/12/09 06:59:55;;;;;;;3.30;3.00;;;;;;;3.43;93.44;94360.44;4975368;28;20307;-85
2021/12/09 07:02:21;;;;;;;3.93;2.73;;;;;;;3.46;92.57;94355.00;4975024;28;20200;-85
2021/12/09 07:04:48;;;;;;;3.90;2.83;;;;;;;3.41;92.92;94359.03;4973625;28;20225;-84
2021/12/09 07:07:15;;;;;;;3.30;3.00;;;;;;;3.39;92.95;94361.72;4974282;28;20203;-85
2021/12/09 07:09:43;;;;;;;3.87;3.07;;;;;;;3.40;93.11;94375.25;4974591;28;20224;-85
2021/12/09 07:12:09;;;;;;;3.10;2.70;;;;;;;3.41;93.24;94367.44;4974644;28;20559;-85
2021/12/09 07:14:36;;;;;;;3.50;3.20;;;;;;;3.38;93.23;94375.41;4975089;28;20711;-84
2021/12/09 07:17:03;;;;;;;3.67;3.10;;;;;;;3.36;93.49;94379.06;4975099;28;20204;-85
2021/12/09 07:19:29;;;;;;;3.77;3.23;;;;;;;3.34;93.63;94388.59;4974580;28;20235;-85
2021/12/09 07:21:56;;;;;;;3.53;3.23;;;;;;;3.34;93.94;94386.84;4974872;28;20262;-85
2021/12/09 07:24:22;;;;;;;4.97;3.23;;;;;;;3.37;94.06;94390.81;4973297;28;20220;-85
2021/12/09 07:26:50;;;;;;;5.33;3.53;;;;;;;3.40;93.63;94393.84;4970608;28;20208;-85
2021/12/09 07:29:16;;;;;;;3.50;3.20;;;;;;;3.45;92.92;94398.44;4974641;28;20235;-85
2021/12/09 07:31:43;;;;;;;5.67;3.90;;;;;;;3.45;93.10;94406.09;4972305;28;20200;-85
2021/12/09 07:34:09;;;;;;;3.90;3.50;;;;;;;3.36;93.75;94405.28;4973380;28;20231;-85
2021/12/09 07:36:36;;;;;;;3.40;3.10;;;;;;;3.40;93.65;94398.94;4967870;28;20744;-85
2021/12/09 07:39:03;;;;;;;4.47;3.93;;;;;;;3.43;93.39;94402.91;4976114;28;20696;-85
2021/12/09 07:41:29;;;;;;;3.97;3.57;;;;;;;3.42;93.29;94397.03;4977626;28;20381;-84
2021/12/09 07:43:57;;;;;;;4.10;3.70;;;;;;;3.47;93.36;94402.38;4976343;28;20196;-85
2021/12/09 07:46:23;;;;;;;4.00;3.63;;;;;;;3.42;94.15;94401.31;4976155;28;20208;-85
2021/12/09 07:48:50;;;;;;;4.03;3.63;;;;;;;3.44;93.59;94396.84;4977789;28;20204;-85
2021/12/09 07:51:16;;;;;;;5.60;3.60;;;;;;;3.42;93.99;94389.38;4978571;28;20255;-85
2021/12/09 07:53:43;;;;;;;4.33;3.90;;;;;;;3.39;94.01;94399.88;4979572;28;20333;-85
2021/12/09 07:56:09;;;;;;;4.10;3.73;;;;;;;3.39;94.29;94402.44;4979937;28;20231;-85
2021/12/09 07:58:36;;;;;;;3.77;3.37;;;;;;;3.37;95.31;94418.81;4974781;28;20212;-85
2021/12/09 08:01:04;;;;;;;5.50;3.30;;;;;;;3.37;94.98;94411.16;4975064;28;20228;-85
2021/12/09 08:03:31;;;;;;;4.63;4.17;;;;;;;3.44;94.07;94419.75;4973443;28;20247;-85
2021/12/09 08:05:58;;;;;;;4.00;3.67;;;;;;;3.39;94.21;94407.50;4975965;28;20271;-85
2021/12/09 08:08:24;;;;;;;4.57;3.77;;;;;;;3.43;94.00;94423.25;4977175;28;20208;-84
2021/12/09 08:10:50;;;;;;;4.30;3.90;;;;;;;3.46;93.48;94428.78;4978563;28;20235;-85
2021/12/09 08:13:17;;;;;;;5.33;3.67;;;;;;;3.46;93.76;94430.56;4977939;28;20235;-85
2021/12/09 08:15:48;;;;;;;4.33;3.70;;;;;;;3.46;93.08;94440.75;4976079;28;20227;-85
2021/12/09 08:18:27;;;;;;;4.70;3.60;;;;;;;3.49;92.82;94448.03;4979355;28;20295;-84
2021/12/09 08:20:57;;;;;;;3.80;3.40;;;;;;;3.49;93.02;94453.13;4977807;28;20663;-85
2021/12/09 08:23:25;;;;;;;4.50;3.80;;;;;;;3.50;92.80;94459.00;4977751;28;20227;-85
2021/12/09 08:25:52;;;;;;;3.70;3.37;;;;;;;3.47;92.95;94462.66;4978096;28;20251;-85
2021/12/09 08:28:20;;;;;;;3.57;3.27;;;;;;;3.46;92.99;94468.72;4978122;28;20204;-85
2021/12/09 08:30:46;;;;;;;4.00;3.40;;;;;;;3.48;93.16;94472.69;4976974;28;20228;-84
2021/12/09 08:33:13;;;;;;;3.80;3.50;;;;;;;3.43;93.33;94477.47;4976580;28;20215;-85
2021/12/09 08:35:41;;;;;;;5.10;3.97;;;;;;;3.43;93.69;94485.09;4977362;28;20232;-85
2021/12/09 08:38:08;;;;;;;4.00;3.57;;;;;;;3.39;93.79;94480.50;4976778;28;20207;-85
2021/12/09 08:40:37;;;;;;;3.60;3.30;;;;;;;3.36;93.90;94476.50;4977377;28;20219;-85
2021/12/09 08:43:04;;;;;;;3.90;3.50;;;;;;;3.39;93.88;94470.31;4976872;28;20226;-84
2021/12/09 08:45:30;;;;;;;3.83;3.53;;;;;;;3.43;93.79;94477.47;4961099;28;20930;-85
2021/12/09 08:47:57;;;;;;;5.67;3.87;;;;;;;3.43;93.55;94479.22;4976602;28;20212;-85
2021/12/09 08:50:26;;;;;;;3.70;3.40;;;;;;;3.43;93.63;94477.47;4977111;28;20192;-85
2021/12/09 08:52:54;;;;;;;3.70;3.33;;;;;;;3.43;94.06;94476.69;4975573;28;20598;-84
2021/12/09 08:55:22;;;;;;;3.47;3.17;;;;;;;3.40;94.03;94489.72;4976375;28;20239;-85
2021/12/09 08:57:49;;;;;;;4.20;3.80;;;;;;;3.45;93.70;94493.38;4977464;28;20196;-85
2021/12/09 09:00:17;;;;;;;4.27;3.43;;;;;;;3.50;92.96;94500.50;4975526;28;20743;-85
2021/12/09 09:02:46;;;;;;;4.10;3.70;;;;;;;3.46;92.87;94489.09;4976128;28;20203;-84
2021/12/09 09:05:13;;;;;;;4.00;3.60;;;;;;;3.46;93.33;94494.16;4973168;28;20233;-85
2021/12/09 09:07:40;;;;;;;4.23;3.50;;;;;;;3.51;92.88;94499.56;4968786;28;20525;-85
2021/12/09 09:10:10;;;;;;;4.60;3.27;;;;;;;3.54;92.60;94506.06;4976226;28;20227;-85
2021/12/09 09:12:37;;;;;;;4.07;3.67;;;;;;;3.48;93.64;94507.50;4975544;28;20232;-84
2021/12/09 09:15:05;;;;;;;5.67;3.93;;;;;;;3.45;93.61;94511.19;4979351;28;20212;-84
2021/12/09 09:17:31;;;;;;;4.07;3.60;;;;;;;3.51;93.19;94517.38;4976229;28;20208;-84
2021/12/09 09:19:58;;;;;;;5.73;3.70;;;;;;;3.52;93.49;94521.50;4977510;28;20204;-83
2021/12/09 09:22:24;;;;;;;4.20;3.80;;;;;;;3.53;93.64;94527.38;4976342;28;20205;-84
2021/12/09 09:24:51;;;;;;;4.27;3.87;;;;;;;3.58;93.80;94537.88;4975675;28;20232;-83
2021/12/09 09:27:19;;;;;;;4.30;3.60;;;;;;;3.47;93.65;94533.91;4974799;28;20243;-84
2021/12/09 09:29:45;;;;;;;4.20;3.80;;;;;;;3.48;93.70;94527.84;4976011;28;20200;-84
2021/12/09 09:32:12;;;;;;;4.60;3.83;;;;;;;3.56;93.89;94527.88;4972793;28;20204;-84
2021/12/09 09:34:39;;;;;;;4.40;4.00;;;;;;;3.63;92.99;94523.75;4974620;28;20883;-84
2021/12/09 09:37:05;;;;;;;4.47;4.07;;;;;;;3.65;93.00;94523.59;4973885;28;20205;-84
2021/12/09 09:39:33;;;;;;;4.87;4.07;;;;;;;3.65;92.43;94526.94;4974374;28;20196;-84
2021/12/09 09:42:18;;;;;;;5.00;4.50;;;;;;;3.68;92.33;94523.22;4976600;28;20713;-84
2021/12/09 09:44:55;;;;;;;5.97;4.80;;;;;;;3.60;93.03;94520.72;4974951;28;20244;-84
2021/12/09 09:47:22;;;;;;;5.73;4.93;;;;;;;3.54;93.50;94526.44;4958098;28;20228;-84
2021/12/09 09:49:50;;;;;;;5.13;4.63;;;;;;;3.59;93.45;94521.66;4976299;28;20203;-84
2021/12/09 09:52:17;;;;;;;6.23;5.07;;;;;;;3.67;93.27;94516.56;4974957;28;20200;-84
2021/12/09 09:54:43;;;;;;;5.87;5.33;;;;;;;3.61;93.57;94520.56;4975048;28;20260;-84
2021/12/09 09:57:10;;;;;;;6.07;5.47;;;;;;;3.57;94.40;94521.03;4974337;28;20208;-84
2021/12/09 09:59:40;;;;;;;6.20;5.60;;;;;;;3.60;94.20;94526.59;4976139;28;20552;-84
2021/12/09 10:02:09;;;;;;;7.97;5.63;;;;;;;3.61;93.62;94525.66;4974986;28;20200;-84
2021/12/09 10:04:44;;;;;;;7.43;6.27;;;;;;;3.60;94.26;94528.34;4968627;28;20712;-84
2021/12/09 10:07:13;;;;;;;9.10;6.57;;;;;;;3.68;93.85;94526.56;4974282;28;20199;-84
2021/12/09 10:09:40;;;;;;;7.50;6.50;;;;;;;3.67;93.55;94539.47;4975434;28;20196;-84
2021/12/09 10:12:08;;;;;;;7.50;6.70;;;;;;;3.72;93.26;94524.50;4974860;28;20208;-84
2021/12/09 10:14:37;;;;;;;7.67;6.73;;;;;;;3.78;93.58;94526.44;4973567;28;20227;-85
2021/12/09 10:17:09;;;;;;;8.33;7.50;;;;;;;3.83;92.85;94526.75;4974117;28;20581;-85
2021/12/09 10:19:38;;;;;;;8.50;6.87;;;;;;;3.78;91.88;94529.75;4957556;28;20208;-85
2021/12/09 10:22:10;;;;;;;8.03;6.70;;;;;;;3.81;92.58;94521.81;4955745;28;20278;-85
2021/12/09 10:24:41;;;;;;;7.07;6.20;;;;;;;3.63;92.71;94526.28;4972343;28;20230;-85
2021/12/09 10:27:09;;;;;;;8.17;7.17;;;;;;;3.73;93.01;94523.56;4974342;28;20204;-84
2021/12/09 10:29:39;;;;;;;12.70;8.37;;;;;;;3.69;93.94;94527.38;4975078;28;20204;-85
2021/12/09 10:32:12;;;;;;;8.17;6.57;;;;;;;3.83;92.92;94531.03;4973661;28;20288;-85
2021/12/09 10:34:40;;;;;;;8.83;7.33;;;;;;;3.81;92.58;94532.00;4974456;28;20228;-85
2021/12/09 10:37:17;;;;;;;10.83;7.80;;;;;;;3.85;92.09;94531.69;4973221;28;20266;-84
2021/12/09 10:39:50;;;;;;;10.10;6.97;;;;;;;3.88;92.89;94538.97;4970720;28;20200;-85
2021/12/09 10:42:19;;;;;;;7.67;6.97;;;;;;;3.90;92.68;94537.06;4974135;28;20204;-85
2021/12/09 10:44:50;;;;;;;7.40;6.60;;;;;;;3.84;93.22;94538.53;4973959;28;20223;-85
2021/12/09 10:47:35;;;;;;;9.07;7.00;;;;;;;3.85;93.17;94540.09;4975376;28;20292;-85
2021/12/09 10:50:14;;;;;;;10.40;7.17;;;;;;;3.78;93.32;94529.75;4973786;28;20255;-84
2021/12/09 10:52:44;;;;;;;8.00;6.73;;;;;;;3.85;93.16;94536.78;4974666;28;20870;-85
2021/12/09 10:55:25;;;;;;;10.63;7.10;;;;;;;3.92;93.12;94541.03;4974169;28;20266;-84
2021/12/09 10:57:58;;;;;;;10.53;6.90;;;;;;;3.94;91.78;94545.97;4974556;28;20246;-85
2021/12/09 11:00:29;;;;;;;8.70;6.40;;;;;;;3.87;91.81;94543.25;4975093;28;20204;-84
2021/12/09 11:03:20;;;;;;;10.77;6.47;;;;;;;3.79;92.22;94540.75;4973869;28;20237;-85
2021/12/09 11:05:52;;;;;;;9.10;6.33;;;;;;;3.72;92.85;94539.78;4972639;28;20224;-85
2021/12/09 11:08:28;;;;;;;7.33;6.03;;;;;;;3.78;92.85;94542.50;4975872;28;20778;-85
2021/12/09 11:11:00;;;;;;;8.83;6.27;;;;;;;3.83;92.79;94538.69;4978172;28;20207;-85
2021/12/09 11:13:37;;;;;;;9.10;6.50;;;;;;;3.91;92.46;94544.53;4977293;28;20238;-85
2021/12/09 11:16:05;;;;;;;9.40;6.07;;;;;;;3.88;93.02;94549.16;4976057;28;20222;-85
2021/12/09 11:18:37;;;;;;;8.10;6.03;;;;;;;3.87;92.60;94543.25;4977370;28;20328;-85
2021/12/09 11:21:08;;;;;;;8.97;6.00;;;;;;;3.94;92.57;94548.53;4977609;28;20192;-85
2021/12/09 11:23:41;;;;;;;9.10;5.77;;;;;;;3.92;92.37;94558.06;4978557;28;20243;-85
2021/12/09 11:26:35;;;;;;;8.10;5.97;;;;;;;3.84;92.46;94551.25;4976592;28;20223;-85
2021/12/09 11:29:07;;;;;;;11.30;5.80;;;;;;;3.84;92.17;94556.34;4977730;28;20238;-85
2021/12/09 11:31:39;;;;;;;10.53;6.37;;;;;;;3.87;92.96;94550.91;4977963;28;20687;-85
2021/12/09 11:34:12;;;;;;;7.60;6.60;;;;;;;3.90;92.37;94552.34;4978533;28;20230;-85
2021/12/09 11:36:49;;;;;;;10.37;5.70;;;;;;;3.87;93.02;94550.09;4976684;28;20203;-85
2021/12/09 11:39:21;;;;;;;8.07;5.47;;;;;;;3.92;92.81;94558.06;4976409;28;20231;-85
2021/12/09 11:41:48;;;;;;;6.83;5.60;;;;;;;3.88;92.95;94561.88;4977745;28;20200;-85
2021/12/09 11:44:15;;;;;;;8.83;5.70;;;;;;;3.89;92.74;94553.28;4977360;28;20660;-85
2021/12/09 11:46:44;;;;;;;7.00;5.23;;;;;;;3.86;92.05;94551.06;4978675;28;20689;-85
2021/12/09 11:49:12;;;;;;;7.10;5.30;;;;;;;3.86;92.15;94559.50;4982302;28;20203;-85